Villas del Norte, Puerto Rico
Current Conditions -  °F | °C
As of 4:56 AM on Friday 31 Oct 2014 (Local Time) from TJSJ Reporting Station
Few Clouds Few Clouds  
Wind Chill: 79°   Ceiling: Unl
Heat Index: 83°   Visibility: 10mi
Dew Point: 76°   Wind: 3mph
Humidity: 90%   Direction: 170°S
Pressure: 29.81"   Gusts: NA
Location:  18.3346°N, 66.4186°W
Report Text: TJSJ 310856Z 17003KT 10SM FEW030 26/24 A2981 RMK AO2 SLP093 T02610244 56005
Loading
Personal Weather Stations






























Interactive Weather Map New forecast layout! Learn more

10-Day Weather Forecast

Advertisements
Track Severe Weather on mobile